sensor_id;sensor_type;location;lat;lon;timestamp;temperature;humidity
31799;DHT22;18374;51.136;3.502;2022-12-22T00:02:01;9.40;99.90
31799;DHT22;18374;51.136;3.502;2022-12-22T00:04:49;9.40;99.90
31799;DHT22;18374;51.136;3.502;2022-12-22T00:07:35;9.40;99.90
31799;DHT22;18374;51.136;3.502;2022-12-22T00:10:21;9.40;99.90
31799;DHT22;18374;51.136;3.502;2022-12-22T00:13:09;9.40;99.90
31799;DHT22;18374;51.136;3.502;2022-12-22T00:15:56;9.40;99.90
31799;DHT22;18374;51.136;3.502;2022-12-22T00:18:42;9.40;99.90
31799;DHT22;18374;51.136;3.502;2022-12-22T00:21:28;9.40;99.90
31799;DHT22;18374;51.136;3.502;2022-12-22T00:24:15;9.40;99.90
31799;DHT22;18374;51.136;3.502;2022-12-22T00:27:01;9.40;99.90
31799;DHT22;18374;51.136;3.502;2022-12-22T00:29:47;9.40;99.90
31799;DHT22;18374;51.136;3.502;2022-12-22T00:32:35;9.40;99.90
31799;DHT22;18374;51.136;3.502;2022-12-22T00:35:22;9.40;99.90
31799;DHT22;18374;51.136;3.502;2022-12-22T00:38:17;9.40;99.90
31799;DHT22;18374;51.136;3.502;2022-12-22T00:41:05;9.40;99.90
31799;DHT22;18374;51.136;3.502;2022-12-22T00:43:51;9.40;99.90
31799;DHT22;18374;51.136;3.502;2022-12-22T00:46:37;9.40;99.90
31799;DHT22;18374;51.136;3.502;2022-12-22T00:49:24;9.40;99.90
31799;DHT22;18374;51.136;3.502;2022-12-22T00:52:11;9.40;99.90
31799;DHT22;18374;51.136;3.502;2022-12-22T00:54:58;9.40;99.90
31799;DHT22;18374;51.136;3.502;2022-12-22T00:57:44;9.40;99.90
31799;DHT22;18374;51.136;3.502;2022-12-22T01:00:30;9.40;99.90
31799;DHT22;18374;51.136;3.502;2022-12-22T01:03:16;9.40;99.90
31799;DHT22;18374;51.136;3.502;2022-12-22T01:06:02;9.40;99.90
31799;DHT22;18374;51.136;3.502;2022-12-22T01:08:48;9.50;99.90
31799;DHT22;18374;51.136;3.502;2022-12-22T01:11:34;9.50;99.90
31799;DHT22;18374;51.136;3.502;2022-12-22T01:14:20;9.50;99.90
31799;DHT22;18374;51.136;3.502;2022-12-22T01:17:08;9.50;99.90
31799;DHT22;18374;51.136;3.502;2022-12-22T01:19:54;9.40;99.90
31799;DHT22;18374;51.136;3.502;2022-12-22T01:22:40;9.40;99.90
31799;DHT22;18374;51.136;3.502;2022-12-22T01:25:27;9.40;99.90
31799;DHT22;18374;51.136;3.502;2022-12-22T01:28:13;9.40;99.90
31799;DHT22;18374;51.136;3.502;2022-12-22T01:31:23;9.40;99.90
31799;DHT22;18374;51.136;3.502;2022-12-22T01:34:11;9.40;99.90
31799;DHT22;18374;51.136;3.502;2022-12-22T01:36:57;9.40;99.90
31799;DHT22;18374;51.136;3.502;2022-12-22T01:39:43;9.40;99.90
31799;DHT22;18374;51.136;3.502;2022-12-22T01:42:30;9.40;99.90
31799;DHT22;18374;51.136;3.502;2022-12-22T01:45:28;9.40;99.90
31799;DHT22;18374;51.136;3.502;2022-12-22T01:48:19;9.40;99.90
31799;DHT22;18374;51.136;3.502;2022-12-22T01:51:12;9.40;99.90
31799;DHT22;18374;51.136;3.502;2022-12-22T01:54:01;9.40;99.90
31799;DHT22;18374;51.136;3.502;2022-12-22T01:56:47;9.40;99.90
31799;DHT22;18374;51.136;3.502;2022-12-22T01:59:34;9.40;99.90
31799;DHT22;18374;51.136;3.502;2022-12-22T02:02:20;9.40;99.90
31799;DHT22;18374;51.136;3.502;2022-12-22T02:05:08;9.40;99.90
31799;DHT22;18374;51.136;3.502;2022-12-22T02:11:17;9.30;99.90
31799;DHT22;18374;51.136;3.502;2022-12-22T02:14:14;9.30;99.90
31799;DHT22;18374;51.136;3.502;2022-12-22T02:23:40;9.30;99.90
31799;DHT22;18374;51.136;3.502;2022-12-22T02:29:26;9.30;99.90
31799;DHT22;18374;51.136;3.502;2022-12-22T02:32:14;9.30;99.90
31799;DHT22;18374;51.136;3.502;2022-12-22T02:35:00;9.30;99.90
31799;DHT22;18374;51.136;3.502;2022-12-22T02:37:56;9.30;99.90
31799;DHT22;18374;51.136;3.502;2022-12-22T02:40:55;9.30;99.90
31799;DHT22;18374;51.136;3.502;2022-12-22T02:50:31;9.30;99.90
31799;DHT22;18374;51.136;3.502;2022-12-22T02:53:22;9.30;99.90
31799;DHT22;18374;51.136;3.502;2022-12-22T02:56:08;9.20;99.90
31799;DHT22;18374;51.136;3.502;2022-12-22T02:58:55;9.20;99.90
31799;DHT22;18374;51.136;3.502;2022-12-22T03:01:42;9.20;99.90
31799;DHT22;18374;51.136;3.502;2022-12-22T03:04:29;9.20;99.90
31799;DHT22;18374;51.136;3.502;2022-12-22T03:07:15;9.20;99.90
31799;DHT22;18374;51.136;3.502;2022-12-22T03:10:01;9.20;99.90
31799;DHT22;18374;51.136;3.502;2022-12-22T03:12:48;9.20;99.90
31799;DHT22;18374;51.136;3.502;2022-12-22T03:15:34;9.20;99.90
31799;DHT22;18374;51.136;3.502;2022-12-22T03:18:20;9.20;99.90
31799;DHT22;18374;51.136;3.502;2022-12-22T03:21:06;9.20;99.90
31799;DHT22;18374;51.136;3.502;2022-12-22T03:23:52;9.20;99.90
31799;DHT22;18374;51.136;3.502;2022-12-22T03:26:38;9.20;99.90
31799;DHT22;18374;51.136;3.502;2022-12-22T03:29:06;9.20;99.90
31799;DHT22;18374;51.136;3.502;2022-12-22T03:31:33;9.10;99.90
31799;DHT22;18374;51.136;3.502;2022-12-22T03:34:01;9.20;99.90
31799;DHT22;18374;51.136;3.502;2022-12-22T03:36:28;9.10;99.90
31799;DHT22;18374;51.136;3.502;2022-12-22T03:38:55;9.00;99.90
31799;DHT22;18374;51.136;3.502;2022-12-22T03:41:23;9.00;99.90
31799;DHT22;18374;51.136;3.502;2022-12-22T03:44:09;9.00;99.90
31799;DHT22;18374;51.136;3.502;2022-12-22T03:46:55;9.00;99.90
31799;DHT22;18374;51.136;3.502;2022-12-22T03:49:23;9.00;99.90
31799;DHT22;18374;51.136;3.502;2022-12-22T03:51:52;9.00;99.90
31799;DHT22;18374;51.136;3.502;2022-12-22T03:54:21;9.00;99.90
31799;DHT22;18374;51.136;3.502;2022-12-22T03:56:49;9.00;99.90
31799;DHT22;18374;51.136;3.502;2022-12-22T03:59:18;9.10;99.90
31799;DHT22;18374;51.136;3.502;2022-12-22T04:01:50;9.10;99.90
31799;DHT22;18374;51.136;3.502;2022-12-22T04:04:20;9.10;99.90
31799;DHT22;18374;51.136;3.502;2022-12-22T04:06:49;9.20;99.90
31799;DHT22;18374;51.136;3.502;2022-12-22T04:09:17;9.30;99.90
31799;DHT22;18374;51.136;3.502;2022-12-22T04:11:45;9.30;99.90
31799;DHT22;18374;51.136;3.502;2022-12-22T04:14:31;9.40;99.90
31799;DHT22;18374;51.136;3.502;2022-12-22T04:17:01;9.40;99.90
31799;DHT22;18374;51.136;3.502;2022-12-22T04:19:30;9.50;99.90
31799;DHT22;18374;51.136;3.502;2022-12-22T04:21:57;9.50;99.90
31799;DHT22;18374;51.136;3.502;2022-12-22T04:24:25;9.50;99.90
31799;DHT22;18374;51.136;3.502;2022-12-22T04:26:52;9.60;99.90
31799;DHT22;18374;51.136;3.502;2022-12-22T04:29:20;9.50;99.90
31799;DHT22;18374;51.136;3.502;2022-12-22T04:31:47;9.50;99.90
31799;DHT22;18374;51.136;3.502;2022-12-22T04:34:15;9.50;99.90
31799;DHT22;18374;51.136;3.502;2022-12-22T04:36:42;9.60;99.90
31799;DHT22;18374;51.136;3.502;2022-12-22T04:39:10;9.50;99.90
31799;DHT22;18374;51.136;3.502;2022-12-22T04:41:37;9.50;99.90
31799;DHT22;18374;51.136;3.502;2022-12-22T04:44:05;9.50;99.90
31799;DHT22;18374;51.136;3.502;2022-12-22T04:46:32;9.50;99.90
31799;DHT22;18374;51.136;3.502;2022-12-22T04:49:00;9.60;99.90
31799;DHT22;18374;51.136;3.502;2022-12-22T04:51:28;9.60;99.90
31799;DHT22;18374;51.136;3.502;2022-12-22T04:53:55;9.50;99.90
31799;DHT22;18374;51.136;3.502;2022-12-22T04:56:23;9.50;99.90
31799;DHT22;18374;51.136;3.502;2022-12-22T04:58:50;9.50;99.90
31799;DHT22;18374;51.136;3.502;2022-12-22T05:01:17;9.50;99.90
31799;DHT22;18374;51.136;3.502;2022-12-22T05:03:45;9.50;99.90
31799;DHT22;18374;51.136;3.502;2022-12-22T05:06:13;9.50;99.90
31799;DHT22;18374;51.136;3.502;2022-12-22T05:08:41;9.50;99.90
31799;DHT22;18374;51.136;3.502;2022-12-22T05:11:09;9.40;99.90
31799;DHT22;18374;51.136;3.502;2022-12-22T05:13:37;9.40;99.90
31799;DHT22;18374;51.136;3.502;2022-12-22T05:16:06;9.40;99.90
31799;DHT22;18374;51.136;3.502;2022-12-22T05:18:35;9.40;99.90
31799;DHT22;18374;51.136;3.502;2022-12-22T05:21:06;9.30;99.90
31799;DHT22;18374;51.136;3.502;2022-12-22T05:23:35;9.30;99.90
31799;DHT22;18374;51.136;3.502;2022-12-22T05:26:03;9.30;99.90
31799;DHT22;18374;51.136;3.502;2022-12-22T05:28:30;9.30;99.90
31799;DHT22;18374;51.136;3.502;2022-12-22T05:31:02;9.30;99.90
31799;DHT22;18374;51.136;3.502;2022-12-22T05:33:34;9.20;99.90
31799;DHT22;18374;51.136;3.502;2022-12-22T05:36:02;9.20;99.90
31799;DHT22;18374;51.136;3.502;2022-12-22T05:38:30;9.20;99.90
31799;DHT22;18374;51.136;3.502;2022-12-22T05:40:57;9.20;99.90
31799;DHT22;18374;51.136;3.502;2022-12-22T05:43:33;9.20;99.90
31799;DHT22;18374;51.136;3.502;2022-12-22T05:46:05;9.10;99.90
31799;DHT22;18374;51.136;3.502;2022-12-22T05:48:35;9.00;99.90
31799;DHT22;18374;51.136;3.502;2022-12-22T05:51:06;9.00;99.90
31799;DHT22;18374;51.136;3.502;2022-12-22T05:53:34;9.00;99.90
31799;DHT22;18374;51.136;3.502;2022-12-22T05:56:02;9.00;99.90
31799;DHT22;18374;51.136;3.502;2022-12-22T05:58:30;9.00;99.90
31799;DHT22;18374;51.136;3.502;2022-12-22T06:00:59;9.00;99.90
31799;DHT22;18374;51.136;3.502;2022-12-22T06:03:27;9.00;99.90
31799;DHT22;18374;51.136;3.502;2022-12-22T06:05:56;9.00;99.90
31799;DHT22;18374;51.136;3.502;2022-12-22T06:08:24;9.00;99.90
31799;DHT22;18374;51.136;3.502;2022-12-22T06:10:52;9.00;99.90
31799;DHT22;18374;51.136;3.502;2022-12-22T06:13:21;9.10;99.90
31799;DHT22;18374;51.136;3.502;2022-12-22T06:15:49;9.10;99.90
31799;DHT22;18374;51.136;3.502;2022-12-22T06:18:16;9.00;99.90
31799;DHT22;18374;51.136;3.502;2022-12-22T06:20:44;9.00;99.90
31799;DHT22;18374;51.136;3.502;2022-12-22T06:23:12;8.90;99.90
31799;DHT22;18374;51.136;3.502;2022-12-22T06:25:40;8.90;99.90
31799;DHT22;18374;51.136;3.502;2022-12-22T06:28:07;8.80;99.90
31799;DHT22;18374;51.136;3.502;2022-12-22T06:30:35;8.80;99.90
31799;DHT22;18374;51.136;3.502;2022-12-22T06:33:02;8.80;99.90
31799;DHT22;18374;51.136;3.502;2022-12-22T06:35:30;8.80;99.90
31799;DHT22;18374;51.136;3.502;2022-12-22T06:37:57;8.80;99.90
31799;DHT22;18374;51.136;3.502;2022-12-22T06:40:25;8.70;99.90
31799;DHT22;18374;51.136;3.502;2022-12-22T06:42:52;8.70;99.90
31799;DHT22;18374;51.136;3.502;2022-12-22T06:45:37;8.60;99.90
31799;DHT22;18374;51.136;3.502;2022-12-22T06:48:07;8.40;99.90
31799;DHT22;18374;51.136;3.502;2022-12-22T06:50:36;8.30;99.90
31799;DHT22;18374;51.136;3.502;2022-12-22T06:53:03;8.20;99.90
31799;DHT22;18374;51.136;3.502;2022-12-22T06:55:31;8.10;99.90
31799;DHT22;18374;51.136;3.502;2022-12-22T06:57:59;8.10;99.90
31799;DHT22;18374;51.136;3.502;2022-12-22T07:00:26;8.10;99.90
31799;DHT22;18374;51.136;3.502;2022-12-22T07:02:54;8.00;99.90
31799;DHT22;18374;51.136;3.502;2022-12-22T07:05:22;7.90;99.90
31799;DHT22;18374;51.136;3.502;2022-12-22T07:07:50;7.80;99.90
31799;DHT22;18374;51.136;3.502;2022-12-22T07:10:18;7.70;99.90
31799;DHT22;18374;51.136;3.502;2022-12-22T07:13:06;7.70;99.90
31799;DHT22;18374;51.136;3.502;2022-12-22T07:15:46;7.80;99.90
31799;DHT22;18374;51.136;3.502;2022-12-22T07:18:25;7.80;99.90
31799;DHT22;18374;51.136;3.502;2022-12-22T07:20:54;7.80;99.90
31799;DHT22;18374;51.136;3.502;2022-12-22T07:23:22;7.70;99.90
31799;DHT22;18374;51.136;3.502;2022-12-22T07:25:49;7.70;99.90
31799;DHT22;18374;51.136;3.502;2022-12-22T07:28:17;7.60;99.90
31799;DHT22;18374;51.136;3.502;2022-12-22T07:30:50;7.60;99.90
31799;DHT22;18374;51.136;3.502;2022-12-22T07:33:19;7.60;99.90
31799;DHT22;18374;51.136;3.502;2022-12-22T07:35:47;7.60;99.90
31799;DHT22;18374;51.136;3.502;2022-12-22T07:38:14;7.50;99.90
31799;DHT22;18374;51.136;3.502;2022-12-22T07:40:41;7.50;99.90
31799;DHT22;18374;51.136;3.502;2022-12-22T07:43:14;7.50;99.90
31799;DHT22;18374;51.136;3.502;2022-12-22T07:45:41;7.50;99.90
31799;DHT22;18374;51.136;3.502;2022-12-22T07:48:09;7.50;99.90
31799;DHT22;18374;51.136;3.502;2022-12-22T07:50:57;7.60;99.90
31799;DHT22;18374;51.136;3.502;2022-12-22T07:53:30;7.70;99.90
31799;DHT22;18374;51.136;3.502;2022-12-22T07:56:03;7.80;99.90
31799;DHT22;18374;51.136;3.502;2022-12-22T07:58:31;7.90;99.90
31799;DHT22;18374;51.136;3.502;2022-12-22T08:00:59;8.00;99.90
31799;DHT22;18374;51.136;3.502;2022-12-22T08:03:27;8.00;99.90
31799;DHT22;18374;51.136;3.502;2022-12-22T08:05:55;8.00;99.90
31799;DHT22;18374;51.136;3.502;2022-12-22T08:08:22;8.00;99.90
31799;DHT22;18374;51.136;3.502;2022-12-22T08:10:50;8.00;99.90
31799;DHT22;18374;51.136;3.502;2022-12-22T08:13:17;8.00;99.90
31799;DHT22;18374;51.136;3.502;2022-12-22T08:15:46;8.00;99.90
31799;DHT22;18374;51.136;3.502;2022-12-22T08:18:16;8.00;99.90
31799;DHT22;18374;51.136;3.502;2022-12-22T08:20:47;8.00;99.90
31799;DHT22;18374;51.136;3.502;2022-12-22T08:23:17;8.00;99.90
31799;DHT22;18374;51.136;3.502;2022-12-22T08:25:44;8.00;99.90
31799;DHT22;18374;51.136;3.502;2022-12-22T08:28:14;8.00;99.90
31799;DHT22;18374;51.136;3.502;2022-12-22T08:30:44;8.10;99.90
31799;DHT22;18374;51.136;3.502;2022-12-22T08:33:12;8.10;99.90
31799;DHT22;18374;51.136;3.502;2022-12-22T08:35:39;8.10;99.90
31799;DHT22;18374;51.136;3.502;2022-12-22T08:38:07;8.10;99.90
31799;DHT22;18374;51.136;3.502;2022-12-22T08:40:34;8.20;99.90
31799;DHT22;18374;51.136;3.502;2022-12-22T08:43:03;8.20;99.90
31799;DHT22;18374;51.136;3.502;2022-12-22T08:45:31;8.20;99.90
31799;DHT22;18374;51.136;3.502;2022-12-22T08:47:59;8.20;99.90
31799;DHT22;18374;51.136;3.502;2022-12-22T08:50:26;8.20;99.90
31799;DHT22;18374;51.136;3.502;2022-12-22T08:53:00;8.20;99.90
31799;DHT22;18374;51.136;3.502;2022-12-22T08:55:31;8.20;99.90
31799;DHT22;18374;51.136;3.502;2022-12-22T08:57:59;8.20;99.90
31799;DHT22;18374;51.136;3.502;2022-12-22T09:00:26;8.20;99.90
31799;DHT22;18374;51.136;3.502;2022-12-22T09:02:54;8.20;99.90
31799;DHT22;18374;51.136;3.502;2022-12-22T09:05:22;8.20;99.90
31799;DHT22;18374;51.136;3.502;2022-12-22T09:07:49;8.10;99.90
31799;DHT22;18374;51.136;3.502;2022-12-22T09:10:17;8.10;99.90
31799;DHT22;18374;51.136;3.502;2022-12-22T09:12:44;8.10;99.90
31799;DHT22;18374;51.136;3.502;2022-12-22T09:15:13;8.10;99.90
31799;DHT22;18374;51.136;3.502;2022-12-22T09:17:41;8.10;99.90
31799;DHT22;18374;51.136;3.502;2022-12-22T09:20:09;8.10;99.90
31799;DHT22;18374;51.136;3.502;2022-12-22T09:22:37;8.20;99.90
31799;DHT22;18374;51.136;3.502;2022-12-22T09:25:05;8.10;99.90
31799;DHT22;18374;51.136;3.502;2022-12-22T09:27:33;8.10;99.90
31799;DHT22;18374;51.136;3.502;2022-12-22T09:30:01;8.20;99.90
31799;DHT22;18374;51.136;3.502;2022-12-22T09:32:28;8.10;99.90
31799;DHT22;18374;51.136;3.502;2022-12-22T09:34:56;8.10;99.90
31799;DHT22;18374;51.136;3.502;2022-12-22T09:37:24;8.10;99.90
31799;DHT22;18374;51.136;3.502;2022-12-22T09:39:51;8.10;99.90
31799;DHT22;18374;51.136;3.502;2022-12-22T09:42:19;8.20;99.90
31799;DHT22;18374;51.136;3.502;2022-12-22T09:44:47;8.20;99.90
31799;DHT22;18374;51.136;3.502;2022-12-22T09:47:21;8.20;99.90
31799;DHT22;18374;51.136;3.502;2022-12-22T09:50:06;8.20;99.90
31799;DHT22;18374;51.136;3.502;2022-12-22T09:52:41;8.30;99.90
31799;DHT22;18374;51.136;3.502;2022-12-22T09:57:51;8.30;99.90
31799;DHT22;18374;51.136;3.502;2022-12-22T10:00:21;8.40;99.90
31799;DHT22;18374;51.136;3.502;2022-12-22T10:05:44;8.40;99.90
31799;DHT22;18374;51.136;3.502;2022-12-22T10:08:24;8.60;99.90
31799;DHT22;18374;51.136;3.502;2022-12-22T10:10:54;8.70;99.90
31799;DHT22;18374;51.136;3.502;2022-12-22T10:13:22;8.80;99.90
31799;DHT22;18374;51.136;3.502;2022-12-22T10:15:50;8.80;99.90
31799;DHT22;18374;51.136;3.502;2022-12-22T10:18:26;8.80;99.90
31799;DHT22;18374;51.136;3.502;2022-12-22T10:21:16;8.90;99.90
31799;DHT22;18374;51.136;3.502;2022-12-22T10:23:43;9.00;99.90
31799;DHT22;18374;51.136;3.502;2022-12-22T10:26:31;9.20;99.90
31799;DHT22;18374;51.136;3.502;2022-12-22T10:29:06;9.30;99.90
31799;DHT22;18374;51.136;3.502;2022-12-22T10:31:39;9.30;99.90
31799;DHT22;18374;51.136;3.502;2022-12-22T10:34:28;9.40;99.90
31799;DHT22;18374;51.136;3.502;2022-12-22T10:36:57;9.50;99.90
31799;DHT22;18374;51.136;3.502;2022-12-22T10:39:27;9.60;99.90
31799;DHT22;18374;51.136;3.502;2022-12-22T10:41:58;9.70;99.90
31799;DHT22;18374;51.136;3.502;2022-12-22T10:44:28;9.80;99.90
31799;DHT22;18374;51.136;3.502;2022-12-22T10:46:57;9.90;99.90
31799;DHT22;18374;51.136;3.502;2022-12-22T10:49:27;10.10;99.90
31799;DHT22;18374;51.136;3.502;2022-12-22T10:52:05;10.20;99.90
31799;DHT22;18374;51.136;3.502;2022-12-22T10:54:37;10.20;99.90
31799;DHT22;18374;51.136;3.502;2022-12-22T10:59:48;10.00;99.90
31799;DHT22;18374;51.136;3.502;2022-12-22T11:04:49;9.90;99.90
31799;DHT22;18374;51.136;3.502;2022-12-22T11:07:17;9.80;99.90
31799;DHT22;18374;51.136;3.502;2022-12-22T11:09:44;9.70;99.90
31799;DHT22;18374;51.136;3.502;2022-12-22T11:12:15;9.70;99.90
31799;DHT22;18374;51.136;3.502;2022-12-22T11:20:43;9.60;99.90
31799;DHT22;18374;51.136;3.502;2022-12-22T11:23:30;9.50;99.90
31799;DHT22;18374;51.136;3.502;2022-12-22T11:36:57;9.60;99.90
31799;DHT22;18374;51.136;3.502;2022-12-22T11:39:47;9.60;99.90
31799;DHT22;18374;51.136;3.502;2022-12-22T11:45:10;9.60;99.90
31799;DHT22;18374;51.136;3.502;2022-12-22T11:51:33;9.60;99.90
31799;DHT22;18374;51.136;3.502;2022-12-22T11:59:53;9.70;99.90
31799;DHT22;18374;51.136;3.502;2022-12-22T12:02:29;9.70;99.90
31799;DHT22;18374;51.136;3.502;2022-12-22T12:10:41;9.70;99.90
31799;DHT22;18374;51.136;3.502;2022-12-22T12:16:47;9.70;99.90
31799;DHT22;18374;51.136;3.502;2022-12-22T12:21:59;9.80;99.90
31799;DHT22;18374;51.136;3.502;2022-12-22T12:30:16;9.80;99.90
31799;DHT22;18374;51.136;3.502;2022-12-22T12:44:25;9.70;99.90
31799;DHT22;18374;51.136;3.502;2022-12-22T12:46:56;9.60;99.90
31799;DHT22;18374;51.136;3.502;2022-12-22T12:52:02;9.50;99.90
31799;DHT22;18374;51.136;3.502;2022-12-22T12:54:43;9.40;99.90
31799;DHT22;18374;51.136;3.502;2022-12-22T12:59:57;9.30;99.90
31799;DHT22;18374;51.136;3.502;2022-12-22T13:10:31;9.30;99.90
31799;DHT22;18374;51.136;3.502;2022-12-22T13:13:00;9.30;99.90
31799;DHT22;18374;51.136;3.502;2022-12-22T13:18:03;9.30;99.90
31799;DHT22;18374;51.136;3.502;2022-12-22T13:26:44;9.30;99.90
31799;DHT22;18374;51.136;3.502;2022-12-22T13:29:16;9.30;99.90
31799;DHT22;18374;51.136;3.502;2022-12-22T13:31:49;9.30;99.90
31799;DHT22;18374;51.136;3.502;2022-12-22T13:37:24;9.40;99.90
31799;DHT22;18374;51.136;3.502;2022-12-22T13:42:37;9.40;99.90
31799;DHT22;18374;51.136;3.502;2022-12-22T13:45:17;9.40;99.90
31799;DHT22;18374;51.136;3.502;2022-12-22T13:47:55;9.50;99.90
31799;DHT22;18374;51.136;3.502;2022-12-22T13:50:24;9.50;99.90
31799;DHT22;18374;51.136;3.502;2022-12-22T13:52:53;9.50;99.90
31799;DHT22;18374;51.136;3.502;2022-12-22T13:55:25;9.50;99.90
31799;DHT22;18374;51.136;3.502;2022-12-22T13:58:03;9.50;99.90
31799;DHT22;18374;51.136;3.502;2022-12-22T14:00:32;9.60;99.90
31799;DHT22;18374;51.136;3.502;2022-12-22T14:03:01;9.60;99.90
31799;DHT22;18374;51.136;3.502;2022-12-22T14:05:35;9.60;99.90
31799;DHT22;18374;51.136;3.502;2022-12-22T14:08:04;9.70;99.90
31799;DHT22;18374;51.136;3.502;2022-12-22T14:10:34;9.70;99.90
31799;DHT22;18374;51.136;3.502;2022-12-22T14:13:05;9.70;99.90
31799;DHT22;18374;51.136;3.502;2022-12-22T14:15:37;9.70;99.90
31799;DHT22;18374;51.136;3.502;2022-12-22T14:18:05;9.70;99.90
31799;DHT22;18374;51.136;3.502;2022-12-22T14:20:33;9.70;99.90
31799;DHT22;18374;51.136;3.502;2022-12-22T14:23:15;9.80;99.90
31799;DHT22;18374;51.136;3.502;2022-12-22T14:25:44;9.80;99.90
31799;DHT22;18374;51.136;3.502;2022-12-22T14:30:49;9.80;99.90
31799;DHT22;18374;51.136;3.502;2022-12-22T14:35:49;9.80;99.90
31799;DHT22;18374;51.136;3.502;2022-12-22T14:38:24;9.90;99.90
31799;DHT22;18374;51.136;3.502;2022-12-22T14:40:53;9.90;99.90
31799;DHT22;18374;51.136;3.502;2022-12-22T14:43:24;10.00;99.90
31799;DHT22;18374;51.136;3.502;2022-12-22T14:46:01;10.00;99.90
31799;DHT22;18374;51.136;3.502;2022-12-22T14:48:34;10.00;99.90
31799;DHT22;18374;51.136;3.502;2022-12-22T14:51:04;10.00;99.90
31799;DHT22;18374;51.136;3.502;2022-12-22T14:53:48;10.10;99.90
31799;DHT22;18374;51.136;3.502;2022-12-22T14:56:18;10.10;99.90
31799;DHT22;18374;51.136;3.502;2022-12-22T14:58:46;10.20;99.90
31799;DHT22;18374;51.136;3.502;2022-12-22T15:03:59;10.20;99.90
31799;DHT22;18374;51.136;3.502;2022-12-22T15:12:20;10.30;99.90
31799;DHT22;18374;51.136;3.502;2022-12-22T15:14:48;10.30;99.90
31799;DHT22;18374;51.136;3.502;2022-12-22T15:17:20;10.30;99.90
31799;DHT22;18374;51.136;3.502;2022-12-22T15:19:49;10.30;99.90
31799;DHT22;18374;51.136;3.502;2022-12-22T15:22:17;10.30;99.90
31799;DHT22;18374;51.136;3.502;2022-12-22T15:24:45;10.30;99.90
31799;DHT22;18374;51.136;3.502;2022-12-22T15:27:13;10.30;99.90
31799;DHT22;18374;51.136;3.502;2022-12-22T15:29:41;10.40;99.90
31799;DHT22;18374;51.136;3.502;2022-12-22T15:32:12;10.40;99.90
31799;DHT22;18374;51.136;3.502;2022-12-22T15:34:40;10.40;99.90
31799;DHT22;18374;51.136;3.502;2022-12-22T15:37:10;10.40;99.90
31799;DHT22;18374;51.136;3.502;2022-12-22T15:39:38;10.40;99.90
31799;DHT22;18374;51.136;3.502;2022-12-22T15:42:06;10.40;99.90
31799;DHT22;18374;51.136;3.502;2022-12-22T15:44:34;10.40;99.90
31799;DHT22;18374;51.136;3.502;2022-12-22T15:47:07;10.40;99.90
31799;DHT22;18374;51.136;3.502;2022-12-22T15:49:39;10.40;99.90
31799;DHT22;18374;51.136;3.502;2022-12-22T15:52:07;10.40;99.90
31799;DHT22;18374;51.136;3.502;2022-12-22T15:54:36;10.40;99.90
31799;DHT22;18374;51.136;3.502;2022-12-22T15:57:04;10.40;99.90
31799;DHT22;18374;51.136;3.502;2022-12-22T15:59:31;10.30;99.90
31799;DHT22;18374;51.136;3.502;2022-12-22T16:01:59;10.40;99.90
31799;DHT22;18374;51.136;3.502;2022-12-22T16:04:29;10.40;99.90
31799;DHT22;18374;51.136;3.502;2022-12-22T16:06:57;10.30;99.90
31799;DHT22;18374;51.136;3.502;2022-12-22T16:09:25;10.30;99.90
31799;DHT22;18374;51.136;3.502;2022-12-22T16:11:55;10.40;99.90
31799;DHT22;18374;51.136;3.502;2022-12-22T16:14:22;10.40;99.90
31799;DHT22;18374;51.136;3.502;2022-12-22T16:16:51;10.40;99.90
31799;DHT22;18374;51.136;3.502;2022-12-22T16:19:18;10.30;99.90
31799;DHT22;18374;51.136;3.502;2022-12-22T16:21:46;10.40;99.90
31799;DHT22;18374;51.136;3.502;2022-12-22T16:24:23;10.40;99.90
31799;DHT22;18374;51.136;3.502;2022-12-22T16:26:53;10.40;99.90
31799;DHT22;18374;51.136;3.502;2022-12-22T16:29:23;10.40;99.90
31799;DHT22;18374;51.136;3.502;2022-12-22T16:31:51;10.40;99.90
31799;DHT22;18374;51.136;3.502;2022-12-22T16:34:19;10.40;99.90
31799;DHT22;18374;51.136;3.502;2022-12-22T16:36:46;10.40;99.90
31799;DHT22;18374;51.136;3.502;2022-12-22T16:39:14;10.40;99.90
31799;DHT22;18374;51.136;3.502;2022-12-22T16:41:42;10.40;99.90
31799;DHT22;18374;51.136;3.502;2022-12-22T16:44:11;10.40;99.90
31799;DHT22;18374;51.136;3.502;2022-12-22T16:47:03;10.40;99.90
31799;DHT22;18374;51.136;3.502;2022-12-22T16:49:31;10.40;99.90
31799;DHT22;18374;51.136;3.502;2022-12-22T16:51:59;10.40;99.90
31799;DHT22;18374;51.136;3.502;2022-12-22T16:54:26;10.40;99.90
31799;DHT22;18374;51.136;3.502;2022-12-22T16:56:54;10.40;99.90
31799;DHT22;18374;51.136;3.502;2022-12-22T16:59:21;10.40;99.90
31799;DHT22;18374;51.136;3.502;2022-12-22T17:01:49;10.40;99.90
31799;DHT22;18374;51.136;3.502;2022-12-22T17:04:20;10.40;99.90
31799;DHT22;18374;51.136;3.502;2022-12-22T17:06:50;10.40;99.90
31799;DHT22;18374;51.136;3.502;2022-12-22T17:09:22;10.40;99.90
31799;DHT22;18374;51.136;3.502;2022-12-22T17:11:52;10.40;99.90
31799;DHT22;18374;51.136;3.502;2022-12-22T17:14:54;10.40;99.90
31799;DHT22;18374;51.136;3.502;2022-12-22T17:17:15;10.40;99.90
31799;DHT22;18374;51.136;3.502;2022-12-22T17:19:44;10.40;99.90
31799;DHT22;18374;51.136;3.502;2022-12-22T17:22:22;10.40;99.90
31799;DHT22;18374;51.136;3.502;2022-12-22T17:24:52;10.40;99.90
31799;DHT22;18374;51.136;3.502;2022-12-22T17:27:23;10.40;99.90
31799;DHT22;18374;51.136;3.502;2022-12-22T17:29:54;10.40;99.90
31799;DHT22;18374;51.136;3.502;2022-12-22T17:32:22;10.40;99.90
31799;DHT22;18374;51.136;3.502;2022-12-22T17:34:50;10.40;99.90
31799;DHT22;18374;51.136;3.502;2022-12-22T17:37:18;10.40;99.90
31799;DHT22;18374;51.136;3.502;2022-12-22T17:39:49;10.40;99.90
31799;DHT22;18374;51.136;3.502;2022-12-22T17:42:21;10.40;99.90
31799;DHT22;18374;51.136;3.502;2022-12-22T17:44:50;10.40;99.90
31799;DHT22;18374;51.136;3.502;2022-12-22T17:47:18;10.40;99.90
31799;DHT22;18374;51.136;3.502;2022-12-22T17:49:59;10.40;99.90
31799;DHT22;18374;51.136;3.502;2022-12-22T17:52:27;10.40;99.90
31799;DHT22;18374;51.136;3.502;2022-12-22T17:54:54;10.40;99.90
31799;DHT22;18374;51.136;3.502;2022-12-22T17:57:29;10.40;99.90
31799;DHT22;18374;51.136;3.502;2022-12-22T17:59:59;10.30;99.90
31799;DHT22;18374;51.136;3.502;2022-12-22T18:02:26;10.30;99.90
31799;DHT22;18374;51.136;3.502;2022-12-22T18:04:55;10.30;99.90
31799;DHT22;18374;51.136;3.502;2022-12-22T18:07:23;10.30;99.90
31799;DHT22;18374;51.136;3.502;2022-12-22T18:09:52;10.30;99.90
31799;DHT22;18374;51.136;3.502;2022-12-22T18:12:25;10.30;99.90
31799;DHT22;18374;51.136;3.502;2022-12-22T18:14:52;10.30;99.90
31799;DHT22;18374;51.136;3.502;2022-12-22T18:17:24;10.30;99.90
31799;DHT22;18374;51.136;3.502;2022-12-22T18:20:01;10.30;99.90
31799;DHT22;18374;51.136;3.502;2022-12-22T18:22:30;10.30;99.90
31799;DHT22;18374;51.136;3.502;2022-12-22T18:24:57;10.30;99.90
31799;DHT22;18374;51.136;3.502;2022-12-22T18:27:25;10.30;99.90
31799;DHT22;18374;51.136;3.502;2022-12-22T18:29:52;10.30;99.90
31799;DHT22;18374;51.136;3.502;2022-12-22T18:32:20;10.20;99.90